Time,TemperatureF,DewpointF,PressureIn,WindDirection,WindDirectionDegrees,WindSpeedMPH,WindSpeedGustMPH,Humidity,HourlyPrecipIn,Conditions,Clouds,dailyrainin,SoftwareType,DateUTC
2013-08-06 00:44:00,62.0,47.0,29.94,West,279,4.0,8.0,57,0.00,,,0.00,,2013-08-06 04:44:00,
2013-08-06 00:54:00,61.0,45.0,29.95,WNW,284,2.0,9.0,56,0.00,,,0.00,,2013-08-06 04:54:00,
2013-08-06 01:02:00,62.0,47.0,29.94,WSW,256,6.0,14.0,58,0.00,,,0.00,,2013-08-06 05:02:00,
2013-08-06 01:11:00,62.0,47.0,29.94,WSW,256,6.0,14.0,58,0.00,,,0.00,,2013-08-06 05:11:00,
2013-08-06 01:22:00,62.0,47.0,29.95,West,264,11.0,17.0,58,0.00,,,0.00,,2013-08-06 05:22:00,
2013-08-06 01:32:00,62.0,47.0,29.95,West,271,8.0,15.0,57,0.00,,,0.00,,2013-08-06 05:32:00,
2013-08-06 01:43:00,62.0,47.0,29.95,West,271,8.0,15.0,57,0.00,,,0.00,,2013-08-06 05:43:00,
2013-08-06 01:53:00,61.0,46.0,29.95,West,260,10.0,16.0,57,0.00,,,0.00,,2013-08-06 05:53:00,
2013-08-06 02:02:00,61.0,46.0,29.94,WNW,285,9.0,15.0,57,0.00,,,0.00,,2013-08-06 06:02:00,
2013-08-06 02:12:00,61.0,46.0,29.94,WNW,285,9.0,15.0,57,0.00,,,0.00,,2013-08-06 06:12:00,
2013-08-06 02:22:00,62.0,47.0,29.95,WNW,283,11.0,16.0,58,0.00,,,0.00,,2013-08-06 06:22:00,
2013-08-06 02:32:00,60.0,44.0,29.95,WNW,297,6.0,11.0,56,0.00,,,0.00,,2013-08-06 06:32:00,
2013-08-06 02:43:00,60.0,44.0,29.95,WNW,297,6.0,11.0,56,0.00,,,0.00,,2013-08-06 06:43:00,
2013-08-06 02:52:00,61.0,45.0,29.95,West,280,2.0,9.0,56,0.00,,,0.00,,2013-08-06 06:52:00,
2013-08-06 03:01:00,60.0,45.0,29.95,NW,314,9.0,12.0,57,0.00,,,0.00,,2013-08-06 07:01:00,
2013-08-06 03:12:00,60.0,45.0,29.95,NW,314,9.0,12.0,57,0.00,,,0.00,,2013-08-06 07:12:00,
2013-08-06 03:22:00,61.0,46.0,29.95,NNW,327,8.0,14.0,57,0.00,,,0.00,,2013-08-06 07:22:00,
2013-08-06 03:32:00,60.0,45.0,29.95,NW,317,8.0,15.0,57,0.00,,,0.00,,2013-08-06 07:32:00,
2013-08-06 03:43:00,60.0,45.0,29.95,NW,317,8.0,15.0,57,0.00,,,0.00,,2013-08-06 07:43:00,
2013-08-06 03:53:00,60.0,45.0,29.95,WNW,303,9.0,15.0,57,0.00,,,0.00,,2013-08-06 07:53:00,
2013-08-06 04:02:00,60.0,44.0,29.95,NW,321,7.0,11.0,56,0.00,,,0.00,,2013-08-06 08:02:00,
2013-08-06 04:11:00,60.0,44.0,29.95,NW,321,7.0,11.0,56,0.00,,,0.00,,2013-08-06 08:11:00,
2013-08-06 04:22:00,59.0,42.0,29.96,NNW,328,8.0,11.0,54,0.00,,,0.00,,2013-08-06 08:22:00,
2013-08-06 04:33:00,58.0,41.0,29.96,NNW,338,8.0,13.0,53,0.00,,,0.00,,2013-08-06 08:33:00,
2013-08-06 04:43:00,58.0,41.0,29.96,NNW,338,8.0,13.0,53,0.00,,,0.00,,2013-08-06 08:43:00,
2013-08-06 04:52:00,58.0,40.0,29.96,NW,314,8.0,12.0,52,0.00,,,0.00,,2013-08-06 08:52:00,
2013-08-06 05:11:00,58.0,39.0,29.96,NNW,333,6.0,12.0,50,0.00,,,0.00,,2013-08-06 09:11:00,
2013-08-06 06:22:00,58.0,40.0,29.98,NNW,336,6.0,9.0,51,0.00,,,0.00,,2013-08-06 10:22:00,
2013-08-06 06:32:00,58.0,40.0,29.98,NNW,336,6.0,9.0,51,0.00,,,0.00,,2013-08-06 10:32:00,
2013-08-06 06:43:00,58.0,40.0,29.99,NNW,334,5.0,10.0,52,0.00,,,0.00,,2013-08-06 10:43:00,
2013-08-06 07:02:00,59.0,42.0,30.00,NW,314,6.0,11.0,53,0.00,,,0.00,,2013-08-06 11:02:00,
2013-08-06 07:11:00,59.0,42.0,30.00,NW,314,6.0,11.0,53,0.00,,,0.00,,2013-08-06 11:11:00,
2013-08-06 07:32:00,61.0,45.0,30.02,NNW,328,6.0,11.0,56,0.00,,,0.00,,2013-08-06 11:32:00,
2013-08-06 07:43:00,61.0,45.0,30.02,NNW,328,6.0,11.0,56,0.00,,,0.00,,2013-08-06 11:43:00,
2013-08-06 07:53:00,62.0,46.0,30.02,NNW,329,5.0,9.0,55,0.00,,,0.00,,2013-08-06 11:53:00,
2013-08-06 08:11:00,63.0,47.0,30.03,NW,323,2.0,9.0,55,0.00,,,0.00,,2013-08-06 12:11:00,
2013-08-06 08:22:00,63.0,46.0,30.03,WNW,296,4.0,10.0,54,0.00,,,0.00,,2013-08-06 12:22:00,
2013-08-06 08:52:00,63.0,45.0,30.04,NW,317,5.0,7.0,52,0.00,,,0.00,,2013-08-06 12:52:00,
2013-08-06 09:02:00,64.0,47.0,30.05,NW,306,6.0,11.0,55,0.00,,,0.00,,2013-08-06 13:02:00,
2013-08-06 09:11:00,64.0,47.0,30.05,NW,306,6.0,11.0,55,0.00,,,0.00,,2013-08-06 13:11:00,
2013-08-06 09:32:00,65.0,48.0,30.06,NW,314,5.0,11.0,55,0.00,,,0.00,,2013-08-06 13:32:00,
2013-08-06 09:42:00,65.0,48.0,30.06,NW,314,5.0,11.0,55,0.00,,,0.00,,2013-08-06 13:42:00,
2013-08-06 09:53:00,66.0,49.0,30.06,NW,306,0.0,9.0,55,0.00,,,0.00,,2013-08-06 13:53:00,
2013-08-06 10:01:00,64.0,47.0,30.06,WSW,241,1.0,7.0,53,0.00,,,0.00,,2013-08-06 14:01:00,
2013-08-06 10:11:00,64.0,47.0,30.06,WSW,241,1.0,7.0,53,0.00,,,0.00,,2013-08-06 14:11:00,
2013-08-06 10:22:00,64.0,47.0,30.06,WSW,241,4.0,5.0,53,0.00,,,0.00,,2013-08-06 14:22:00,
2013-08-06 10:32:00,65.0,47.0,30.06,WSW,241,0.0,4.0,53,0.00,,,0.00,,2013-08-06 14:32:00,
2013-08-06 10:42:00,65.0,47.0,30.06,WSW,241,0.0,4.0,53,0.00,,,0.00,,2013-08-06 14:42:00,
2013-08-06 10:53:00,64.0,47.0,30.06,WSW,241,4.0,7.0,54,0.00,,,0.00,,2013-08-06 14:53:00,
2013-08-06 11:02:00,65.0,48.0,30.06,SW,233,5.0,8.0,55,0.00,,,0.00,,2013-08-06 15:02:00,
2013-08-06 11:12:00,65.0,48.0,30.06,SW,233,5.0,8.0,55,0.00,,,0.00,,2013-08-06 15:12:00,
2013-08-06 11:23:00,66.0,50.0,30.06,SW,233,3.0,6.0,56,0.00,,,0.00,,2013-08-06 15:23:00,
2013-08-06 11:33:00,66.0,50.0,30.06,SW,233,3.0,6.0,56,0.00,,,0.00,,2013-08-06 15:33:00,
2013-08-06 11:44:00,66.0,47.0,30.06,SSW,195,3.0,7.0,50,0.00,,,0.00,,2013-08-06 15:44:00,
2013-08-06 11:52:00,67.0,51.0,30.06,SSW,195,3.0,6.0,56,0.00,,,0.00,,2013-08-06 15:52:00,
2013-08-06 12:02:00,66.0,47.0,30.06,SSW,213,4.0,-999.0,50,-99.99,,,-99.99,,2013-08-06 16:02:00,
2013-08-06 12:11:00,66.0,47.0,30.06,SSW,213,4.0,-999.0,50,-99.99,,,-99.99,,2013-08-06 16:11:00,
2013-08-06 12:32:00,66.0,45.0,30.06,SSW,209,5.0,-999.0,47,-99.99,,,-99.99,,2013-08-06 16:32:00,
2013-08-06 12:43:00,66.0,45.0,30.06,SSW,209,5.0,-999.0,47,-99.99,,,-99.99,,2013-08-06 16:43:00,
2013-08-06 15:22:00,66.0,46.0,30.05,SW,217,13.0,20.0,49,0.00,,,0.00,,2013-08-06 19:22:00,
2013-08-06 15:32:00,66.0,46.0,30.05,SW,217,13.0,20.0,49,0.00,,,0.00,,2013-08-06 19:32:00,
2013-08-06 15:42:00,66.0,46.0,30.05,SW,217,13.0,20.0,49,0.00,,,0.00,,2013-08-06 19:42:00,
2013-08-06 15:52:00,66.0,47.0,30.06,SW,224,13.0,20.0,50,0.00,,,0.00,,2013-08-06 19:52:00,
2013-08-06 16:01:00,66.0,47.0,30.06,SW,224,13.0,20.0,50,0.00,,,0.00,,2013-08-06 20:01:00,
2013-08-06 16:11:00,66.0,46.0,30.06,SSW,194,11.0,18.0,49,0.00,,,0.00,,2013-08-06 20:11:00,
2013-08-06 19:43:00,64.0,43.0,30.08,WSW,239,11.0,-999.0,47,-99.99,,,-99.99,,2013-08-06 23:43:00,
2013-08-06 19:52:00,64.0,43.0,30.08,SW,227,12.0,-999.0,47,-99.99,,,-99.99,,2013-08-06 23:52:00,
2013-08-06 20:01:00,64.0,43.0,30.08,WSW,250,11.0,-999.0,46,-99.99,,,-99.99,,2013-08-07 00:01:00,
2013-08-06 20:11:00,64.0,43.0,30.08,WSW,250,11.0,-999.0,46,-99.99,,,-99.99,,2013-08-07 00:11:00,
2013-08-06 21:53:00,64.0,46.0,30.11,West,269,6.0,-999.0,52,-99.99,,,-99.99,,2013-08-07 01:53:00,
2013-08-06 22:02:00,64.0,46.0,30.11,West,269,6.0,-999.0,52,-99.99,,,-99.99,,2013-08-07 02:02:00,
2013-08-06 22:11:00,64.0,45.0,30.11,West,261,5.0,-999.0,51,-99.99,,,-99.99,,2013-08-07 02:11:00,
2013-08-06 22:22:00,64.0,45.0,30.11,West,263,3.0,-999.0,51,-99.99,,,-99.99,,2013-08-07 02:22:00,
2013-08-06 22:33:00,64.0,45.0,30.11,West,263,3.0,-999.0,51,-99.99,,,-99.99,,2013-08-07 02:33:00,
2013-08-06 22:43:00,64.0,46.0,30.11,West,263,3.0,-999.0,52,-99.99,,,-99.99,,2013-08-07 02:43:00,